createdAt,value
2022-09-15T00:04:41.069Z,99.90
2022-09-15T00:09:43.468Z,99.90
2022-09-15T00:14:45.866Z,99.90
2022-09-15T00:19:48.275Z,99.90
2022-09-15T00:24:50.699Z,99.90
2022-09-15T00:29:53.297Z,99.90
2022-09-15T00:34:55.668Z,99.90
2022-09-15T00:39:58.405Z,99.90
2022-09-15T00:45:02.795Z,99.90
2022-09-15T00:50:16.748Z,99.90
2022-09-15T00:55:23.964Z,99.90
2022-09-15T01:00:28.244Z,99.90
2022-09-15T01:05:34.729Z,99.90
2022-09-15T01:10:39.816Z,99.90
2022-09-15T01:15:59.307Z,99.90
2022-09-15T01:21:24.007Z,99.90
2022-09-15T01:26:32.317Z,99.90
2022-09-15T01:32:16.594Z,99.90
2022-09-15T01:37:27.251Z,99.90
2022-09-15T01:42:31.526Z,99.90
2022-09-15T01:47:35.651Z,99.90
2022-09-15T01:52:42.857Z,99.90
2022-09-15T01:57:45.631Z,99.90
2022-09-15T02:02:57.507Z,99.90
2022-09-15T02:08:25.388Z,99.90
2022-09-15T02:13:48.720Z,99.90
2022-09-15T02:19:06.745Z,99.90
2022-09-15T02:24:16.517Z,99.90
2022-09-15T02:29:20.844Z,99.90
2022-09-15T02:34:29.935Z,99.90
2022-09-15T02:39:36.803Z,99.90
2022-09-15T02:44:39.256Z,99.90
2022-09-15T02:49:41.689Z,99.90
2022-09-15T02:54:44.043Z,99.90
2022-09-15T03:00:05.165Z,99.90
2022-09-15T03:05:09.202Z,99.90
2022-09-15T03:10:12.883Z,99.90
2022-09-15T03:15:18.417Z,99.90
2022-09-15T03:20:30.336Z,99.90
2022-09-15T03:25:32.692Z,99.90
2022-09-15T03:30:35.067Z,99.90
2022-09-15T03:35:37.765Z,99.90
2022-09-15T03:40:40.331Z,99.90
2022-09-15T03:45:42.856Z,99.90
2022-09-15T03:50:45.325Z,99.90
2022-09-15T03:55:49.081Z,99.90
2022-09-15T04:00:51.485Z,99.90
2022-09-15T04:05:53.886Z,99.90
2022-09-15T04:10:56.542Z,99.90
2022-09-15T04:16:04.282Z,99.90
2022-09-15T04:21:10.740Z,99.90
2022-09-15T04:26:34.967Z,99.90
2022-09-15T04:31:37.344Z,99.90
2022-09-15T04:36:40.069Z,99.90
2022-09-15T04:41:42.712Z,99.90
2022-09-15T04:46:45.174Z,99.90
2022-09-15T04:51:47.724Z,99.90
2022-09-15T04:56:50.204Z,99.90
2022-09-15T05:01:55.961Z,99.90
2022-09-15T05:06:58.515Z,99.90
2022-09-15T05:12:01.121Z,99.90
2022-09-15T05:17:03.591Z,99.90
2022-09-15T05:22:05.994Z,99.90
2022-09-15T05:27:08.411Z,99.90
2022-09-15T05:32:10.805Z,99.90
2022-09-15T05:37:13.663Z,99.90
2022-09-15T05:42:16.002Z,99.90
2022-09-15T05:47:18.474Z,99.90
2022-09-15T05:52:20.810Z,99.90
2022-09-15T05:57:23.202Z,99.90
2022-09-15T06:02:26.281Z,99.90
2022-09-15T06:07:28.660Z,99.90
2022-09-15T06:12:31.262Z,99.90
2022-09-15T06:17:34.162Z,99.90
2022-09-15T06:22:36.642Z,99.90
2022-09-15T06:27:40.013Z,99.90
2022-09-15T06:32:47.398Z,99.90
2022-09-15T06:37:51.070Z,99.90
2022-09-15T06:42:57.239Z,99.90
2022-09-15T06:48:22.925Z,99.90
2022-09-15T06:53:22.491Z,99.90
2022-09-15T06:58:26.135Z,99.90
2022-09-15T07:03:28.693Z,99.90
2022-09-15T07:08:31.326Z,99.90
2022-09-15T07:13:34.456Z,99.90
2022-09-15T07:18:42.322Z,99.90
2022-09-15T07:23:47.007Z,99.90
2022-09-15T07:28:55.653Z,99.90
2022-09-15T07:33:59.783Z,99.90
2022-09-15T07:39:03.909Z,99.90
2022-09-15T07:44:08.518Z,99.90
2022-09-15T07:49:10.990Z,99.90
2022-09-15T07:54:13.501Z,99.90
2022-09-15T07:59:15.889Z,99.90
2022-09-15T08:04:18.289Z,99.90
2022-09-15T08:09:20.945Z,99.90
2022-09-15T08:14:23.448Z,99.90
2022-09-15T08:19:25.853Z,99.90
2022-09-15T08:24:29.028Z,99.90
2022-09-15T08:29:57.650Z,99.90
2022-09-15T08:35:00.125Z,99.90
2022-09-15T08:40:03.930Z,99.90
2022-09-15T08:45:28.940Z,99.90
2022-09-15T08:50:42.005Z,99.90
2022-09-15T08:55:50.853Z,99.90
2022-09-15T09:01:19.232Z,99.20
2022-09-15T09:06:52.245Z,97.80
2022-09-15T09:12:23.343Z,97.60
2022-09-15T09:17:34.822Z,96.80
2022-09-15T09:22:43.671Z,94.80
2022-09-15T09:27:48.034Z,94.10
2022-09-15T09:32:56.011Z,95.20
2022-09-15T09:38:00.147Z,95.40
2022-09-15T09:43:06.957Z,95.30
2022-09-15T09:48:19.330Z,94.20
2022-09-15T09:53:40.693Z,93.90
2022-09-15T09:58:46.196Z,93.50
2022-09-15T10:03:48.700Z,93.60
2022-09-15T10:09:01.057Z,91.40
2022-09-15T10:14:03.676Z,92.10
2022-09-15T10:19:06.251Z,91.30
2022-09-15T10:24:25.394Z,91.50
2022-09-15T10:29:38.103Z,91.60
2022-09-15T10:34:40.631Z,91.00
2022-09-15T10:39:43.060Z,90.80
2022-09-15T10:51:39.235Z,89.70
2022-09-15T10:56:47.366Z,90.50
2022-09-15T11:02:06.147Z,90.60
2022-09-15T11:07:30.403Z,90.70
2022-09-15T11:13:07.325Z,91.20
2022-09-15T11:18:52.536Z,90.00
2022-09-15T11:24:02.759Z,88.20
2022-09-15T11:29:31.120Z,89.20
2022-09-15T11:34:46.732Z,90.20
2022-09-15T11:40:29.988Z,90.10
2022-09-15T11:45:46.386Z,91.50
2022-09-15T11:50:52.763Z,91.80
2022-09-15T11:56:16.150Z,90.70
2022-09-15T12:01:27.466Z,91.00
2022-09-15T12:06:32.778Z,90.20
2022-09-15T12:11:41.183Z,90.30
2022-09-15T12:16:44.847Z,88.50
2022-09-15T12:21:53.395Z,88.60
2022-09-15T12:26:56.063Z,86.90
2022-09-15T12:32:22.059Z,88.00
2022-09-15T12:37:26.140Z,86.80
2022-09-15T12:42:33.478Z,81.50
2022-09-15T12:47:50.846Z,81.10
2022-09-15T12:53:00.894Z,84.50
2022-09-15T12:58:16.178Z,87.50
2022-09-15T13:03:29.066Z,88.30
2022-09-15T13:08:31.392Z,84.40
2022-09-15T13:13:57.948Z,82.80
2022-09-15T13:19:09.273Z,81.80
2022-09-15T13:24:20.450Z,80.00
2022-09-15T13:29:24.464Z,78.90
2022-09-15T13:35:04.815Z,77.00
2022-09-15T13:40:28.830Z,74.80
2022-09-15T13:45:54.950Z,72.80
2022-09-15T13:51:00.899Z,73.00
2022-09-15T13:56:10.590Z,71.90
2022-09-15T14:01:14.383Z,73.30
2022-09-15T14:06:27.221Z,74.50
2022-09-15T14:11:33.494Z,73.20
2022-09-15T14:16:39.795Z,70.80
2022-09-15T14:21:49.127Z,70.10
2022-09-15T14:26:52.379Z,69.10
2022-09-15T14:32:00.816Z,71.70
2022-09-15T14:37:13.797Z,71.60
2022-09-15T14:42:23.341Z,68.60
2022-09-15T14:47:28.143Z,69.00
2022-09-15T14:52:36.293Z,69.40
2022-09-15T15:03:18.728Z,61.50
2022-09-15T15:08:29.723Z,60.90
2022-09-15T15:13:32.262Z,57.20
2022-09-15T15:18:40.789Z,62.30
2022-09-15T15:23:47.035Z,66.30
2022-09-15T15:28:49.658Z,65.00
2022-09-15T15:33:59.554Z,64.80
2022-09-15T15:39:06.273Z,65.00
2022-09-15T15:44:17.578Z,63.00
2022-09-15T15:49:24.019Z,64.90
2022-09-15T15:54:27.030Z,65.60
2022-09-15T15:59:29.422Z,67.10
2022-09-15T16:04:31.791Z,68.20
2022-09-15T16:09:34.380Z,68.50
2022-09-15T16:14:36.718Z,69.60
2022-09-15T17:32:21.264Z,80.70
2022-09-15T17:37:26.106Z,80.90
2022-09-15T17:42:28.760Z,81.30
2022-09-15T17:47:32.836Z,82.50
2022-09-15T17:52:35.276Z,83.10
2022-09-15T17:57:37.683Z,85.00
2022-09-15T18:02:42.452Z,85.20
2022-09-15T18:07:44.919Z,86.10
2022-09-15T18:12:49.240Z,89.30
2022-09-15T18:17:56.125Z,90.10
2022-09-15T18:23:00.128Z,90.30
2022-09-15T18:28:03.598Z,92.90
2022-09-15T18:33:07.219Z,94.70
2022-09-15T18:38:10.259Z,94.70
2022-09-15T18:43:12.652Z,94.20
2022-09-15T18:48:15.039Z,93.50
2022-09-15T18:53:17.410Z,92.70
2022-09-15T18:58:19.876Z,93.00
2022-09-15T19:03:22.602Z,92.60
2022-09-15T19:08:24.981Z,91.90
2022-09-15T19:13:28.897Z,92.20
2022-09-15T19:18:31.446Z,91.80
2022-09-15T19:23:33.957Z,91.40
2022-09-15T19:28:36.347Z,91.50
2022-09-15T19:33:39.365Z,91.60
2022-09-15T19:38:41.894Z,91.50
2022-09-15T19:43:44.513Z,91.60
2022-09-15T19:48:49.468Z,93.40
2022-09-15T19:53:56.391Z,96.60
2022-09-15T19:58:59.638Z,99.90
2022-09-15T20:09:22.503Z,99.90
2022-09-15T20:14:24.938Z,99.90
2022-09-15T20:19:27.484Z,99.90
2022-09-15T20:24:29.979Z,99.90
2022-09-15T20:29:32.384Z,99.90
2022-09-15T20:34:34.785Z,99.60
2022-09-15T20:39:37.219Z,99.90
2022-09-15T20:44:39.649Z,99.90
2022-09-15T20:49:42.124Z,99.90
2022-09-15T20:54:44.536Z,99.80
2022-09-15T20:59:46.899Z,99.90
2022-09-15T21:04:49.355Z,99.90
2022-09-15T21:09:51.766Z,99.90
2022-09-15T21:14:55.442Z,99.90
2022-09-15T21:19:57.792Z,99.90
2022-09-15T21:25:00.158Z,99.90
2022-09-15T21:30:02.541Z,99.90
2022-09-15T21:35:05.918Z,99.90
2022-09-15T21:40:09.687Z,99.90
2022-09-15T21:45:12.198Z,99.90
2022-09-15T21:50:14.676Z,99.90
2022-09-15T21:55:17.105Z,99.90
2022-09-15T22:00:19.736Z,99.90
2022-09-15T22:05:22.457Z,99.90
2022-09-15T22:10:26.222Z,99.90
2022-09-15T22:15:28.621Z,99.90
2022-09-15T22:20:31.120Z,99.90
2022-09-15T22:25:33.580Z,99.90
2022-09-15T22:30:35.972Z,99.90
2022-09-15T22:35:38.375Z,99.90
2022-09-15T22:40:40.833Z,99.90
2022-09-15T22:45:43.484Z,99.90
2022-09-15T22:50:46.229Z,99.90
2022-09-15T22:55:48.629Z,99.90
2022-09-15T23:00:51.043Z,99.90
2022-09-15T23:05:58.913Z,99.90
2022-09-15T23:11:14.441Z,99.90
2022-09-15T23:16:17.305Z,99.90
2022-09-15T23:21:20.336Z,99.90
2022-09-15T23:26:24.387Z,99.90
2022-09-15T23:31:26.730Z,99.90
2022-09-15T23:36:29.164Z,99.90
2022-09-15T23:41:31.483Z,99.90
2022-09-15T23:46:34.024Z,99.90
2022-09-15T23:51:36.485Z,99.90
2022-09-15T23:56:38.905Z,99.90
